Time;durP1;ratioP1;P1;durP2;ratioP2;P2;SDS_P1;SDS_P2;PMS_P1;PMS_P2;Temp;Humidity;BMP_temperature;BMP_pressure;BME280_temperature;BME280_humidity;BME280_pressure;Samples;Min_cycle;Max_cycle;Signal;HPM_P1;HPM_P2
2023/11/07 00:00:16;;;;;;;4.00;1.98;;;12.70;68.00;14.30;100351.00;;;;4989773;28;20205;-76
2023/11/07 00:02:43;;;;;;;4.10;1.30;;;12.70;68.00;14.30;100360.00;;;;4982497;28;20201;-75
2023/11/07 00:05:10;;;;;;;3.65;1.50;;;12.70;68.00;14.30;100361.00;;;;4988983;28;20205;-75
2023/11/07 00:07:38;;;;;;;3.53;1.77;;;12.70;68.00;14.30;100369.00;;;;4977981;28;20216;-75
2023/11/07 00:10:06;;;;;;;3.47;1.42;;;12.70;68.00;14.30;100370.00;;;;4984811;28;20200;-76
2023/11/07 00:12:34;;;;;;;5.25;1.45;;;12.70;68.10;14.30;100379.00;;;;4987510;28;20694;-75
2023/11/07 00:15:01;;;;;;;2.17;1.50;;;12.70;68.00;14.30;100373.00;;;;4988934;28;20202;-75
2023/11/07 00:17:28;;;;;;;3.85;1.55;;;12.70;68.00;14.30;100373.00;;;;4981875;28;20202;-76
2023/11/07 00:19:56;;;;;;;5.22;1.88;;;12.70;68.70;14.30;100380.00;;;;4979971;28;20556;-76
2023/11/07 00:22:23;;;;;;;4.88;1.60;;;12.70;68.00;14.30;100380.00;;;;4988918;28;20198;-76
2023/11/07 00:24:50;;;;;;;7.10;1.95;;;12.70;68.00;14.30;100381.00;;;;4988617;28;20268;-76
2023/11/07 00:27:18;;;;;;;2.72;1.20;;;12.70;68.00;14.30;100390.00;;;;4986916;28;20205;-75
2023/11/07 00:29:47;;;;;;;2.30;1.23;;;12.70;68.00;14.30;100388.00;;;;4987936;28;20205;-75
2023/11/07 00:32:15;;;;;;;4.50;1.80;;;12.70;68.00;14.30;100385.00;;;;4988888;28;20200;-75
2023/11/07 00:34:41;;;;;;;3.05;1.50;;;12.70;68.00;14.30;100384.00;;;;4988995;28;20229;-75
2023/11/07 00:37:09;;;;;;;5.00;1.63;;;12.70;68.10;14.30;100392.00;;;;4987517;28;20224;-75
2023/11/07 00:39:36;;;;;;;2.20;1.25;;;12.70;68.10;14.30;100391.00;;;;4981040;28;20277;-76
2023/11/07 00:42:04;;;;;;;2.28;1.48;;;12.60;68.10;14.30;100393.00;;;;4988802;28;20652;-75
2023/11/07 00:44:33;;;;;;;2.53;1.55;;;12.70;68.10;14.30;100396.00;;;;4988851;28;20211;-75
2023/11/07 00:47:01;;;;;;;4.85;2.20;;;12.70;68.20;14.30;100402.00;;;;4985521;28;20206;-75
2023/11/07 00:49:28;;;;;;;3.55;1.63;;;12.70;68.20;14.30;100392.00;;;;4987950;28;20671;-76
2023/11/07 00:51:56;;;;;;;3.85;1.90;;;12.70;68.30;14.30;100396.00;;;;4988183;28;20205;-77
2023/11/07 00:54:23;;;;;;;2.90;1.20;;;12.70;68.30;14.30;100405.00;;;;4987117;28;20205;-77
2023/11/07 00:56:50;;;;;;;4.63;1.42;;;12.70;68.40;14.30;100410.00;;;;4983598;28;20208;-77
2023/11/07 00:59:18;;;;;;;3.88;1.88;;;12.70;68.40;14.40;100403.00;;;;4987327;28;20355;-75
2023/11/07 01:01:45;;;;;;;7.03;1.40;;;12.70;68.40;14.40;100401.00;;;;4984458;28;20202;-76
2023/11/07 01:04:13;;;;;;;1.77;1.10;;;12.70;68.40;14.40;100401.00;;;;4987178;28;20738;-75
2023/11/07 01:06:40;;;;;;;3.38;1.00;;;12.70;68.40;14.40;100409.00;;;;4986569;28;20204;-76
2023/11/07 01:09:11;;;;;;;5.65;1.30;;;12.70;68.40;14.40;100403.00;;;;4984544;28;20209;-75
2023/11/07 01:11:39;;;;;;;6.57;1.52;;;12.80;68.40;14.40;100398.00;;;;4983241;28;20204;-75
2023/11/07 01:14:06;;;;;;;4.43;1.58;;;12.80;69.10;14.40;100403.00;;;;4988037;28;20731;-75
2023/11/07 01:16:33;;;;;;;5.97;1.42;;;12.80;68.40;14.50;100409.00;;;;4984955;28;20714;-75
2023/11/07 01:19:00;;;;;;;3.55;1.55;;;12.80;68.40;14.50;100394.00;;;;4988080;28;20233;-75
2023/11/07 01:21:29;;;;;;;2.28;0.90;;;12.80;68.40;14.50;100412.00;;;;4987772;28;20210;-75
2023/11/07 01:23:56;;;;;;;3.35;1.13;;;12.80;68.40;14.50;100413.00;;;;4974955;28;20706;-75
2023/11/07 01:26:23;;;;;;;2.28;1.17;;;12.80;68.30;14.50;100412.00;;;;4982752;28;20607;-76
2023/11/07 01:28:50;;;;;;;3.50;1.30;;;12.90;68.40;14.50;100429.00;;;;4988617;28;20725;-76
2023/11/07 01:31:17;;;;;;;3.00;1.30;;;12.90;68.40;14.50;100417.00;;;;4988258;28;20202;-76
2023/11/07 01:33:44;;;;;;;7.20;1.30;;;12.90;68.40;14.50;100416.00;;;;4988105;28;20663;-76
2023/11/07 01:36:11;;;;;;;6.65;1.55;;;12.90;68.40;14.50;100420.00;;;;4983070;28;20198;-76
2023/11/07 01:38:39;;;;;;;3.58;1.17;;;12.90;68.40;14.50;100412.00;;;;4983979;28;20225;-76
2023/11/07 01:41:06;;;;;;;2.35;0.95;;;12.90;68.40;14.50;100423.00;;;;4988111;28;20205;-76
2023/11/07 01:43:33;;;;;;;3.85;1.23;;;12.90;68.30;14.50;100424.00;;;;4987760;28;20573;-75
2023/11/07 01:46:02;;;;;;;3.15;1.25;;;12.90;68.30;14.50;100421.00;;;;4986182;28;20197;-76
2023/11/07 01:48:30;;;;;;;6.47;1.55;;;12.90;68.40;14.50;100429.00;;;;4985712;28;20210;-76
2023/11/07 01:50:58;;;;;;;3.33;1.55;;;12.90;68.30;14.50;100427.00;;;;4987200;28;20832;-76
2023/11/07 01:53:27;;;;;;;3.83;1.40;;;12.90;68.30;14.50;100428.00;;;;4985274;28;20209;-76
2023/11/07 01:55:58;;;;;;;2.00;0.98;;;12.90;68.30;14.50;100423.00;;;;4986491;28;20675;-76
2023/11/07 01:58:25;;;;;;;2.40;1.20;;;12.90;68.30;14.60;100420.00;;;;4987886;28;20229;-76
2023/11/07 02:00:54;;;;;;;2.67;1.15;;;13.00;68.30;14.60;100420.00;;;;4986475;28;20208;-76
2023/11/07 02:03:22;;;;;;;2.67;1.10;;;13.00;68.30;14.60;100421.00;;;;4990482;28;20215;-76
2023/11/07 02:05:49;;;;;;;8.60;1.17;;;12.90;68.90;14.60;100420.00;;;;4986765;28;20194;-75
2023/11/07 02:08:16;;;;;;;2.05;1.02;;;13.00;68.30;14.60;100426.00;;;;4977575;28;20198;-75
2023/11/07 02:10:43;;;;;;;2.92;1.45;;;13.00;68.30;14.60;100432.00;;;;4987762;28;20659;-76
2023/11/07 02:13:11;;;;;;;3.35;1.10;;;13.00;68.30;14.60;100421.00;;;;4979976;28;20244;-76
2023/11/07 02:15:39;;;;;;;3.10;1.40;;;13.00;68.20;14.60;100431.00;;;;4985597;28;20210;-75
2023/11/07 02:18:06;;;;;;;3.28;1.30;;;13.00;68.20;14.60;100429.00;;;;4985285;28;20197;-76
2023/11/07 02:20:36;;;;;;;1.88;1.00;;;12.90;68.10;14.60;100422.00;;;;4986692;28;20212;-75
2023/11/07 02:23:09;;;;;;;3.35;1.23;;;13.00;68.10;14.50;100418.00;;;;4987627;28;20866;-76
2023/11/07 02:25:39;;;;;;;2.55;1.52;;;13.00;68.20;14.50;100427.00;;;;4983721;28;21063;-75
2023/11/07 02:28:07;;;;;;;4.47;1.25;;;12.90;68.10;14.50;100428.00;;;;4987932;28;20198;-75
2023/11/07 02:30:34;;;;;;;2.47;1.02;;;12.90;68.10;14.50;100423.00;;;;4986621;28;20198;-76
2023/11/07 02:33:04;;;;;;;2.55;0.93;;;12.90;68.10;14.60;100428.00;;;;4988153;28;20198;-75
2023/11/07 02:35:32;;;;;;;3.67;1.30;;;12.90;68.20;14.60;100430.00;;;;4983327;28;20375;-75
2023/11/07 02:37:59;;;;;;;3.15;1.13;;;12.90;68.20;14.60;100436.00;;;;4990905;28;20194;-76
2023/11/07 02:40:26;;;;;;;4.93;1.20;;;12.90;68.10;14.60;100435.00;;;;4982443;28;20651;-76
2023/11/07 02:42:55;;;;;;;2.88;1.17;;;13.00;68.20;14.60;100439.00;;;;4989804;28;20202;-76
2023/11/07 02:45:22;;;;;;;4.43;1.25;;;12.90;68.20;14.60;100434.00;;;;4995482;28;20586;-76
2023/11/07 02:47:49;;;;;;;1.95;1.10;;;13.00;68.30;14.60;100426.00;;;;4989937;28;20209;-76
2023/11/07 02:50:18;;;;;;;6.97;1.80;;;13.00;68.30;14.60;100425.00;;;;4990742;28;20194;-75
2023/11/07 02:52:45;;;;;;;3.47;1.52;;;13.00;68.30;14.60;100420.00;;;;4980414;28;20186;-76
2023/11/07 02:55:12;;;;;;;3.70;1.40;;;12.90;68.20;14.60;100421.00;;;;4986767;28;20575;-76
2023/11/07 02:57:38;;;;;;;6.35;1.75;;;13.00;68.30;14.60;100428.00;;;;4988146;28;20209;-76
2023/11/07 03:00:09;;;;;;;4.47;1.33;;;13.00;68.30;14.60;100420.00;;;;4989404;28;20228;-76
2023/11/07 03:02:37;;;;;;;2.97;1.35;;;13.00;68.30;14.70;100418.00;;;;4988219;28;20293;-75
2023/11/07 03:05:06;;;;;;;2.88;1.00;;;13.00;68.40;14.70;100421.00;;;;4989533;28;20566;-75
2023/11/07 03:07:33;;;;;;;3.05;1.50;;;13.00;68.40;14.70;100423.00;;;;4989211;28;20202;-75
2023/11/07 03:10:01;;;;;;;2.35;1.33;;;13.00;68.40;14.70;100421.00;;;;4990516;28;20200;-75
2023/11/07 03:12:29;;;;;;;2.15;1.23;;;13.00;68.40;14.70;100425.00;;;;4988207;28;20204;-75
2023/11/07 03:14:56;;;;;;;3.83;1.40;;;13.00;68.40;14.70;100424.00;;;;4985962;28;20225;-76
2023/11/07 03:17:26;;;;;;;5.72;1.60;;;13.10;68.50;14.70;100417.00;;;;4989647;28;20216;-76
2023/11/07 03:19:53;;;;;;;3.40;1.38;;;13.10;68.50;14.80;100412.00;;;;4989850;28;20225;-75
2023/11/07 03:22:21;;;;;;;3.50;1.58;;;13.10;68.40;14.80;100426.00;;;;4989544;28;20194;-75
2023/11/07 03:24:49;;;;;;;4.32;1.40;;;13.10;68.50;14.80;100427.00;;;;4986455;28;20694;-75
2023/11/07 03:27:16;;;;;;;5.72;1.27;;;13.10;68.30;14.80;100428.00;;;;4982848;28;20205;-76
2023/11/07 03:29:43;;;;;;;2.13;0.90;;;13.20;68.40;14.80;100427.00;;;;4988590;28;20280;-75
2023/11/07 03:32:17;;;;;;;4.10;1.50;;;13.20;68.30;14.80;100424.00;;;;4990208;28;20201;-75
2023/11/07 03:34:45;;;;;;;1.73;1.27;;;13.20;68.30;14.90;100430.00;;;;4988143;28;20204;-76
2023/11/07 03:37:12;;;;;;;4.38;2.25;;;13.20;68.30;14.90;100422.00;;;;4987437;28;20198;-76
2023/11/07 03:39:39;;;;;;;4.95;1.55;;;13.20;68.30;14.90;100433.00;;;;4986003;28;20222;-76
2023/11/07 03:42:06;;;;;;;3.75;1.50;;;13.20;68.30;14.90;100428.00;;;;4990777;28;20190;-76
2023/11/07 03:44:34;;;;;;;4.13;1.55;;;13.20;68.30;14.90;100435.00;;;;4987649;28;20209;-76
2023/11/07 03:47:05;;;;;;;2.97;1.13;;;13.30;68.30;15.00;100429.00;;;;4985212;28;20194;-76
2023/11/07 03:49:32;;;;;;;3.47;1.52;;;13.30;68.30;15.00;100431.00;;;;4988874;28;20232;-76
2023/11/07 03:52:01;;;;;;;1.88;1.20;;;13.30;68.20;14.90;100432.00;;;;4990392;28;20201;-76
2023/11/07 03:54:28;;;;;;;2.45;1.00;;;13.30;68.20;15.00;100444.00;;;;4983612;28;20189;-76
2023/11/07 03:56:55;;;;;;;4.15;1.30;;;13.30;68.40;15.00;100443.00;;;;4988154;28;20209;-76
2023/11/07 03:59:22;;;;;;;3.95;1.70;;;13.30;68.20;15.00;100437.00;;;;4980318;28;20583;-76
2023/11/07 04:01:50;;;;;;;3.10;1.60;;;13.30;68.20;15.00;100442.00;;;;4990137;28;20287;-76
2023/11/07 04:04:18;;;;;;;3.85;1.60;;;13.30;68.20;15.00;100437.00;;;;4987445;28;20270;-76
2023/11/07 04:06:44;;;;;;;2.38;1.27;;;13.30;68.10;15.00;100437.00;;;;4985344;28;20206;-76
2023/11/07 04:09:13;;;;;;;1.90;1.30;;;13.30;68.10;15.00;100436.00;;;;4990236;28;20224;-76
2023/11/07 04:11:40;;;;;;;3.45;1.40;;;13.40;68.10;15.00;100443.00;;;;4980828;28;20201;-76
2023/11/07 04:14:07;;;;;;;3.90;1.77;;;13.40;68.00;15.00;100448.00;;;;4985776;28;20285;-76
2023/11/07 04:16:34;;;;;;;2.10;1.10;;;13.40;67.90;15.00;100445.00;;;;4983523;28;20205;-76
2023/11/07 04:19:01;;;;;;;2.05;1.00;;;13.40;67.90;15.00;100441.00;;;;4980733;28;20225;-76
2023/11/07 04:21:28;;;;;;;3.88;0.90;;;13.40;67.90;15.00;100442.00;;;;4980803;28;20209;-76
2023/11/07 04:23:55;;;;;;;5.78;1.50;;;13.40;67.90;15.00;100439.00;;;;4987765;28;20225;-76
2023/11/07 04:26:23;;;;;;;1.98;1.15;;;13.40;67.80;15.00;100444.00;;;;4986999;28;20221;-76
2023/11/07 04:28:50;;;;;;;4.65;1.40;;;13.40;67.80;14.90;100441.00;;;;4987756;28;20202;-76
2023/11/07 04:31:17;;;;;;;2.85;1.17;;;13.30;67.60;14.90;100443.00;;;;4987460;28;20267;-76
2023/11/07 04:33:45;;;;;;;3.55;1.30;;;13.30;67.60;14.90;100450.00;;;;4985636;28;20224;-76
2023/11/07 04:36:13;;;;;;;5.07;1.88;;;13.30;67.50;14.90;100435.00;;;;4986768;28;20229;-76
2023/11/07 04:38:41;;;;;;;6.25;1.40;;;13.30;67.50;14.80;100439.00;;;;4987097;28;20284;-76
2023/11/07 04:41:08;;;;;;;4.13;1.33;;;13.30;67.50;14.80;100436.00;;;;4989854;28;20230;-76
2023/11/07 04:43:36;;;;;;;3.40;1.35;;;13.30;67.50;14.80;100440.00;;;;4986160;28;20212;-76
2023/11/07 04:46:04;;;;;;;4.03;1.48;;;13.20;67.40;14.70;100441.00;;;;4986826;28;20197;-76
2023/11/07 04:48:32;;;;;;;2.63;1.30;;;13.20;67.40;14.70;100453.00;;;;4986710;28;20659;-76
2023/11/07 04:51:00;;;;;;;4.03;1.60;;;13.10;67.40;14.70;100449.00;;;;4989566;28;20193;-76
2023/11/07 04:53:28;;;;;;;4.85;1.75;;;13.10;67.40;14.70;100451.00;;;;4987937;28;20202;-77
2023/11/07 04:55:56;;;;;;;4.40;1.48;;;13.10;67.50;14.60;100447.00;;;;4987489;28;20210;-76
2023/11/07 04:58:25;;;;;;;2.05;1.13;;;13.10;67.50;14.60;100445.00;;;;4988562;28;20201;-76
2023/11/07 05:00:54;;;;;;;4.07;1.20;;;13.00;67.50;14.60;100448.00;;;;4980824;28;20252;-76
2023/11/07 05:03:22;;;;;;;9.13;2.15;;;13.00;67.50;14.60;100452.00;;;;4983710;28;20667;-76
2023/11/07 05:05:49;;;;;;;6.18;1.70;;;13.00;67.60;14.50;100446.00;;;;4986204;28;20194;-76
2023/11/07 05:08:18;;;;;;;4.63;1.73;;;13.00;67.60;14.50;100446.00;;;;4988135;28;20202;-76
2023/11/07 05:10:45;;;;;;;4.75;1.77;;;12.90;67.60;14.40;100448.00;;;;4988500;28;20840;-76
2023/11/07 05:13:14;;;;;;;3.40;1.52;;;12.90;67.60;14.40;100436.00;;;;4988554;28;20186;-76
2023/11/07 05:15:42;;;;;;;2.60;1.40;;;12.80;67.50;14.40;100444.00;;;;4983486;28;20284;-76
2023/11/07 05:18:11;;;;;;;4.25;2.58;;;12.80;67.60;14.40;100440.00;;;;4987097;28;20209;-76
2023/11/07 05:20:38;;;;;;;4.15;1.85;;;12.80;67.70;14.40;100448.00;;;;4983938;28;20230;-76
2023/11/07 05:23:05;;;;;;;3.95;1.80;;;12.80;67.70;14.30;100451.00;;;;4988801;28;20280;-76
2023/11/07 05:25:33;;;;;;;3.00;1.90;;;12.80;67.80;14.30;100446.00;;;;4986790;28;20228;-76
2023/11/07 05:28:01;;;;;;;3.72;1.90;;;12.70;67.70;14.30;100438.00;;;;4985720;28;20667;-76
2023/11/07 05:30:28;;;;;;;3.33;1.75;;;12.70;67.80;14.30;100444.00;;;;4985798;28;20202;-76
2023/11/07 05:32:56;;;;;;;3.90;1.90;;;12.70;67.80;14.30;100449.00;;;;4985010;28;20201;-76
2023/11/07 05:35:25;;;;;;;3.55;1.85;;;12.70;67.90;14.30;100446.00;;;;4986371;28;20198;-76
2023/11/07 05:37:52;;;;;;;3.80;1.70;;;12.70;67.90;14.30;100456.00;;;;4985022;28;20197;-76
2023/11/07 05:40:23;;;;;;;5.35;2.15;;;12.60;67.90;14.30;100464.00;;;;4984457;28;20225;-76
2023/11/07 05:42:50;;;;;;;6.32;2.15;;;12.70;68.80;14.30;100463.00;;;;4987425;28;20655;-76
2023/11/07 05:45:18;;;;;;;6.30;2.85;;;12.60;68.00;14.30;100469.00;;;;4987243;28;20205;-76
2023/11/07 05:47:45;;;;;;;4.28;2.35;;;12.60;68.00;14.30;100468.00;;;;4987396;28;20272;-76
2023/11/07 05:50:12;;;;;;;3.47;2.15;;;12.60;68.00;14.30;100472.00;;;;4987085;28;20193;-76
2023/11/07 05:52:40;;;;;;;4.05;2.38;;;12.60;68.00;14.20;100473.00;;;;4980218;28;20205;-76
2023/11/07 05:55:10;;;;;;;5.88;3.10;;;12.60;68.00;14.20;100474.00;;;;4987487;28;20359;-76
2023/11/07 05:57:38;;;;;;;3.60;2.20;;;12.60;68.00;14.20;100477.00;;;;4987463;28;20237;-76
2023/11/07 06:00:08;;;;;;;3.53;2.50;;;12.60;68.00;14.20;100479.00;;;;4982050;28;20229;-76
2023/11/07 06:02:36;;;;;;;4.68;2.40;;;12.60;68.10;14.20;100486.00;;;;4987935;28;20205;-76
2023/11/07 06:05:06;;;;;;;3.72;2.67;;;12.60;68.10;14.20;100487.00;;;;4987552;28;20212;-76
2023/11/07 06:07:33;;;;;;;3.40;2.35;;;12.60;68.10;14.20;100484.00;;;;4985517;28;20216;-76
2023/11/07 06:10:03;;;;;;;5.20;2.80;;;12.50;68.00;14.10;100484.00;;;;4984741;28;20260;-76
2023/11/07 06:12:30;;;;;;;3.53;2.55;;;12.50;68.10;14.10;100487.00;;;;4986687;28;20774;-76
2023/11/07 06:14:57;;;;;;;5.40;2.67;;;12.50;68.00;14.10;100489.00;;;;4987842;28;20202;-76
2023/11/07 06:17:24;;;;;;;4.47;2.60;;;12.50;68.10;14.10;100497.00;;;;4991402;28;20236;-76
2023/11/07 06:19:51;;;;;;;6.18;3.08;;;12.50;68.10;14.10;100489.00;;;;4983286;28;20757;-76
2023/11/07 06:22:18;;;;;;;5.50;2.63;;;12.50;68.20;14.10;100496.00;;;;4990395;28;20205;-77
2023/11/07 06:24:46;;;;;;;4.95;3.00;;;12.50;68.20;14.10;100498.00;;;;4989109;28;20213;-76
2023/11/07 06:27:14;;;;;;;3.78;2.85;;;12.40;68.10;14.10;100494.00;;;;4989920;28;20664;-76
2023/11/07 06:29:43;;;;;;;4.95;3.00;;;12.40;68.20;14.10;100493.00;;;;4988512;28;20221;-76
2023/11/07 06:32:10;;;;;;;3.92;3.03;;;12.40;68.20;14.10;100500.00;;;;4991275;28;20197;-76
2023/11/07 06:34:38;;;;;;;4.07;3.28;;;12.40;68.30;14.10;100496.00;;;;4991390;28;20205;-76
2023/11/07 06:37:05;;;;;;;6.88;3.92;;;12.40;68.30;14.10;100506.00;;;;4991653;28;20202;-76
2023/11/07 06:39:32;;;;;;;5.60;3.25;;;12.40;68.30;14.10;100499.00;;;;4989212;28;20229;-76
2023/11/07 06:41:59;;;;;;;4.55;3.03;;;12.40;68.30;14.10;100508.00;;;;4984781;28;20209;-76
2023/11/07 06:44:27;;;;;;;4.57;3.45;;;12.40;68.30;14.00;100506.00;;;;4981293;28;20194;-76
2023/11/07 06:46:55;;;;;;;6.25;3.38;;;12.40;68.30;14.10;100503.00;;;;4983125;28;20249;-76
2023/11/07 06:49:23;;;;;;;6.15;3.65;;;12.40;68.30;14.00;100507.00;;;;4988775;28;20216;-76
2023/11/07 06:51:51;;;;;;;5.72;3.40;;;12.40;68.30;14.00;100501.00;;;;4988559;28;20863;-76
2023/11/07 06:54:19;;;;;;;5.00;3.67;;;12.40;68.30;14.00;100503.00;;;;4987814;28;20241;-77
2023/11/07 06:56:47;;;;;;;4.75;3.60;;;12.40;68.40;14.00;100516.00;;;;4986644;28;20202;-75
2023/11/07 06:59:13;;;;;;;4.75;3.53;;;12.40;68.40;14.00;100512.00;;;;4989030;28;20276;-77
2023/11/07 07:01:44;;;;;;;3.80;3.20;;;12.40;68.50;14.10;100509.00;;;;4990802;28;20596;-76
2023/11/07 07:04:11;;;;;;;4.60;3.05;;;12.30;68.50;14.10;100515.00;;;;4989827;28;20198;-76
2023/11/07 07:06:38;;;;;;;5.82;4.20;;;12.40;68.60;14.10;100505.00;;;;4979705;28;22766;-75
2023/11/07 07:09:05;;;;;;;4.25;3.63;;;12.40;68.70;14.10;100509.00;;;;4991521;28;20202;-76
2023/11/07 07:11:32;;;;;;;5.40;3.72;;;12.40;68.70;14.20;100514.00;;;;4990517;28;21000;-76
2023/11/07 07:13:59;;;;;;;6.47;4.15;;;12.40;68.80;14.20;100515.00;;;;4977622;28;20202;-75
2023/11/07 07:16:30;;;;;;;5.68;3.90;;;12.40;68.90;14.20;100517.00;;;;4988465;28;20193;-74
2023/11/07 07:18:58;;;;;;;5.95;4.30;;;12.50;68.90;14.20;100523.00;;;;4981392;28;20305;-74
2023/11/07 07:21:26;;;;;;;4.38;3.58;;;12.50;68.90;14.30;100525.00;;;;4984803;28;20214;-74
2023/11/07 07:23:53;;;;;;;6.25;3.55;;;12.50;68.90;14.30;100528.00;;;;4989671;28;20268;-74
2023/11/07 07:26:21;;;;;;;5.35;3.05;;;12.60;68.90;14.30;100531.00;;;;4990238;28;20238;-74
2023/11/07 07:28:52;;;;;;;7.00;3.55;;;12.60;68.90;14.30;100527.00;;;;4981567;28;20205;-74
2023/11/07 07:31:27;;;;;;;7.60;3.88;;;12.60;68.90;14.30;100530.00;;;;4986161;28;20574;-74
2023/11/07 07:33:56;;;;;;;5.03;3.53;;;12.60;68.90;14.40;100534.00;;;;4990661;28;20223;-74
2023/11/07 07:36:24;;;;;;;7.70;4.63;;;12.70;69.00;14.40;100538.00;;;;4981502;28;20194;-74
2023/11/07 07:38:52;;;;;;;7.72;3.70;;;12.70;68.90;14.40;100534.00;;;;4983345;28;20202;-75
2023/11/07 07:41:20;;;;;;;6.68;3.47;;;12.70;68.80;14.40;100540.00;;;;4987290;28;20225;-74
2023/11/07 07:43:47;;;;;;;4.38;3.40;;;12.70;68.70;14.40;100540.00;;;;4989716;28;20281;-74
2023/11/07 07:46:15;;;;;;;6.30;3.47;;;12.70;68.60;14.40;100543.00;;;;4990206;28;20224;-74
2023/11/07 07:48:45;;;;;;;5.60;3.70;;;12.80;68.60;14.50;100543.00;;;;4987024;28;20229;-74
2023/11/07 07:51:13;;;;;;;4.22;3.33;;;12.80;68.60;14.50;100547.00;;;;4990078;28;20239;-74
2023/11/07 07:53:43;;;;;;;5.47;3.63;;;12.80;68.60;14.50;100549.00;;;;4989970;28;20193;-74
2023/11/07 07:56:13;;;;;;;8.38;3.58;;;12.80;68.70;14.50;100557.00;;;;4982196;28;20198;-74
2023/11/07 07:58:42;;;;;;;5.15;3.30;;;12.80;68.60;14.50;100557.00;;;;4982032;28;20731;-74
2023/11/07 08:01:10;;;;;;;6.35;3.85;;;12.90;68.70;14.50;100562.00;;;;4985587;28;21069;-74
2023/11/07 08:03:38;;;;;;;4.72;3.90;;;12.90;68.60;14.60;100562.00;;;;4986364;28;20193;-74
2023/11/07 08:06:06;;;;;;;5.57;3.28;;;12.90;68.50;14.50;100568.00;;;;4988291;28;20615;-74
2023/11/07 08:08:33;;;;;;;4.47;3.70;;;12.90;68.50;14.60;100567.00;;;;4988134;28;20629;-74
2023/11/07 08:11:02;;;;;;;5.35;3.47;;;12.90;68.40;14.60;100579.00;;;;4989354;28;20658;-74
2023/11/07 08:13:29;;;;;;;5.10;3.72;;;12.90;68.30;14.60;100573.00;;;;4988154;28;20216;-74
2023/11/07 08:15:56;;;;;;;6.80;4.28;;;12.90;68.20;14.60;100571.00;;;;4986845;28;20198;-74
2023/11/07 08:18:23;;;;;;;4.32;3.78;;;12.90;68.20;14.60;100572.00;;;;4987323;28;20235;-74
2023/11/07 08:20:51;;;;;;;4.35;3.50;;;12.90;68.20;14.60;100576.00;;;;4986392;28;20713;-74
2023/11/07 08:23:19;;;;;;;4.95;3.55;;;12.90;68.30;14.60;100570.00;;;;4984514;28;20268;-74
2023/11/07 08:25:46;;;;;;;4.15;3.50;;;13.00;68.30;14.60;100572.00;;;;4985788;28;20241;-74
2023/11/07 08:28:14;;;;;;;5.60;3.47;;;13.00;68.30;14.60;100586.00;;;;4988638;28;20651;-74
2023/11/07 08:30:43;;;;;;;5.80;3.70;;;12.90;68.30;14.60;100583.00;;;;4989518;28;20190;-74
2023/11/07 08:33:12;;;;;;;5.63;3.13;;;12.90;68.30;14.60;100582.00;;;;4989768;28;20244;-74
2023/11/07 08:35:39;;;;;;;5.30;3.88;;;13.00;68.30;14.70;100586.00;;;;4989262;28;20229;-74
2023/11/07 08:38:07;;;;;;;7.35;3.60;;;13.00;68.30;14.70;100594.00;;;;4987565;28;20697;-74
2023/11/07 08:40:34;;;;;;;4.55;3.25;;;13.00;68.30;14.70;100592.00;;;;4987914;28;20586;-74
2023/11/07 08:43:01;;;;;;;7.78;3.28;;;13.00;68.30;14.70;100603.00;;;;4989385;28;20538;-74
2023/11/07 08:45:32;;;;;;;5.50;3.63;;;13.10;68.30;14.70;100602.00;;;;4987306;28;20555;-74
2023/11/07 08:47:59;;;;;;;5.25;3.05;;;13.10;68.30;14.80;100603.00;;;;4984983;28;20190;-73
2023/11/07 08:50:26;;;;;;;4.13;3.10;;;13.10;68.20;14.80;100601.00;;;;4969615;28;20286;-74
2023/11/07 08:52:53;;;;;;;5.38;2.88;;;13.10;68.20;14.80;100608.00;;;;4982926;28;20229;-74
2023/11/07 08:55:21;;;;;;;3.42;2.70;;;13.10;68.20;14.80;100606.00;;;;4987393;28;20580;-74
2023/11/07 08:57:49;;;;;;;4.38;3.10;;;13.20;68.20;14.90;100612.00;;;;4988233;28;20202;-74
2023/11/07 09:00:21;;;;;;;3.15;2.78;;;13.20;68.20;14.90;100611.00;;;;4985065;28;20236;-74
2023/11/07 09:02:50;;;;;;;4.90;2.88;;;13.20;68.10;14.90;100617.00;;;;4987263;28;20694;-74
2023/11/07 09:05:17;;;;;;;3.20;2.72;;;13.30;68.10;14.90;100611.00;;;;4988672;28;20208;-74
2023/11/07 09:07:45;;;;;;;3.42;2.45;;;13.30;68.00;14.90;100608.00;;;;4988352;28;20399;-74
2023/11/07 09:10:13;;;;;;;4.20;2.63;;;13.30;67.80;15.00;100617.00;;;;4985351;28;20205;-74
2023/11/07 09:12:41;;;;;;;5.68;3.03;;;13.30;67.80;15.00;100609.00;;;;4985343;28;20198;-74
2023/11/07 09:15:10;;;;;;;4.75;3.00;;;13.40;67.90;15.00;100609.00;;;;4988664;28;20205;-74
2023/11/07 09:17:39;;;;;;;4.55;2.55;;;13.30;67.80;15.00;100620.00;;;;4987696;28;20202;-74
2023/11/07 09:20:11;;;;;;;3.78;2.63;;;13.30;67.60;14.90;100610.00;;;;4983681;28;20651;-74
2023/11/07 09:22:39;;;;;;;4.57;2.30;;;13.30;67.50;15.00;100621.00;;;;4986173;28;20230;-74
2023/11/07 09:25:07;;;;;;;6.95;2.70;;;13.40;67.60;15.00;100616.00;;;;4980500;28;20230;-74
2023/11/07 09:27:35;;;;;;;4.10;2.47;;;13.40;67.50;15.00;100617.00;;;;4986709;28;20197;-74
2023/11/07 09:30:02;;;;;;;3.25;2.53;;;13.30;67.50;15.00;100618.00;;;;4985515;28;20209;-74
2023/11/07 09:32:29;;;;;;;5.18;2.67;;;13.40;67.60;15.00;100620.00;;;;4985908;28;20197;-74
2023/11/07 09:34:57;;;;;;;3.28;2.65;;;13.40;67.70;15.00;100623.00;;;;4985496;28;20216;-74
2023/11/07 09:37:26;;;;;;;4.75;2.33;;;13.40;67.70;15.00;100627.00;;;;4984750;28;20201;-75
2023/11/07 09:39:54;;;;;;;3.40;2.40;;;13.40;67.70;15.10;100625.00;;;;4984621;28;20210;-75
2023/11/07 09:42:21;;;;;;;3.88;2.80;;;13.50;67.80;15.10;100633.00;;;;4983331;28;20233;-75
2023/11/07 09:44:49;;;;;;;2.65;2.13;;;13.50;67.80;15.20;100632.00;;;;4982462;28;20198;-75
2023/11/07 09:47:16;;;;;;;6.00;3.20;;;13.50;67.80;15.20;100630.00;;;;4984385;28;20197;-75
2023/11/07 09:49:45;;;;;;;2.15;1.95;;;13.60;68.00;15.30;100645.00;;;;4980856;28;20659;-75
2023/11/07 09:52:15;;;;;;;3.88;2.17;;;13.60;68.00;15.40;100645.00;;;;4985859;28;20706;-75
2023/11/07 09:54:49;;;;;;;3.80;2.15;;;13.70;68.10;15.40;100643.00;;;;4987946;28;20663;-75
2023/11/07 09:57:18;;;;;;;4.65;2.45;;;13.70;68.10;15.50;100648.00;;;;4980073;28;20224;-75
2023/11/07 09:59:53;;;;;;;3.53;1.95;;;13.80;68.00;15.50;100651.00;;;;4986203;28;20204;-75
2023/11/07 10:02:21;;;;;;;3.33;2.05;;;13.90;68.00;15.60;100639.00;;;;4980867;28;20233;-75
2023/11/07 10:04:52;;;;;;;3.28;1.80;;;13.90;68.00;15.70;100642.00;;;;4988764;28;20229;-75
2023/11/07 10:07:19;;;;;;;3.55;1.60;;;14.00;68.00;15.80;100643.00;;;;4986880;28;20315;-75
2023/11/07 10:09:47;;;;;;;2.22;1.60;;;14.10;68.00;15.80;100644.00;;;;4980621;28;20202;-75
2023/11/07 10:12:16;;;;;;;7.78;2.05;;;14.10;67.90;15.90;100643.00;;;;4983803;28;20216;-75
2023/11/07 10:14:43;;;;;;;4.55;1.98;;;14.20;67.90;16.00;100642.00;;;;4987814;28;20289;-75
2023/11/07 10:17:21;;;;;;;2.38;1.60;;;14.30;67.90;16.00;100638.00;;;;4987298;28;20677;-75
2023/11/07 10:20:04;;;;;;;3.83;1.80;;;14.40;67.70;16.00;100644.00;;;;4979684;28;20213;-75
2023/11/07 10:22:43;;;;;;;5.15;1.77;;;14.40;67.70;16.10;100636.00;;;;4984430;28;20244;-75
2023/11/07 10:25:29;;;;;;;4.43;1.70;;;14.50;67.60;16.20;100630.00;;;;4987265;28;20233;-74
2023/11/07 10:28:00;;;;;;;2.38;1.58;;;14.60;67.30;16.30;100641.00;;;;4987622;28;20204;-75
2023/11/07 10:30:41;;;;;;;3.58;1.40;;;14.70;67.50;16.40;100646.00;;;;4986508;28;20197;-75
2023/11/07 10:33:08;;;;;;;3.25;1.60;;;14.80;67.20;16.50;100641.00;;;;4976488;28;20204;-75
2023/11/07 10:35:54;;;;;;;2.90;1.60;;;14.80;67.30;16.50;100642.00;;;;4985717;28;20197;-75
2023/11/07 10:38:21;;;;;;;1.73;1.33;;;14.90;66.90;16.70;100649.00;;;;4977891;28;20272;-75
2023/11/07 10:40:50;;;;;;;2.13;1.15;;;15.00;67.10;16.70;100640.00;;;;4981511;28;20918;-75
2023/11/07 10:43:33;;;;;;;3.97;1.25;;;15.00;67.00;16.70;100654.00;;;;4984386;28;20694;-75
2023/11/07 10:46:03;;;;;;;2.95;1.20;;;15.10;66.50;16.90;100646.00;;;;4987093;28;20256;-75
2023/11/07 10:48:32;;;;;;;5.45;1.52;;;15.20;66.90;16.90;100650.00;;;;4986914;28;20570;-75
2023/11/07 10:51:03;;;;;;;2.35;1.13;;;15.20;66.80;17.00;100651.00;;;;4979407;28;20758;-75